Iwanui, Waitara Historical Data
 
Daily Summary for October 17, 2017 Units:  Metric    English   Both
« Previous Day
Next Day »
Daily Weekly Monthly Yearly Custom
  Current: High: Low: Average:
Temperature: 17.7 °C 17.9 °C 7.5 °C 11.1 °C
Dew Point: 4.9 °C 7.3 °C 3.0 °C 4.7 °C
Humidity: 43% 82% 42% 66%
Wind Speed: 17.2km/h 27.0km/h 0.0km/h 7.7km/h
Wind Gust: 37.8km/h 41.7km/h - -
WindSW - - WSW
Pressure: 1022.9 hPa 1023.2 hPa 1021.6 hPa -
Precipitation: 0.0 mm      
Historical Graphs
 
 
Tabular Data for October 17, 2017
Time Temperature Dew Point Pressure Wind Wind Speed Wind Gust Humidity Rainfall Rate (Hourly)
00:02 11.9 °C 6.2 °C 1022.9 hPa WSW 15.8 km/h 33.1 km/h 68% 0.0 mm
00:07 11.9 °C 5.9 °C 1022.9 hPa SW 18.3 km/h 33.1 km/h 67% 0.0 mm
00:12 11.9 °C 5.8 °C 1022.9 hPa WSW 14.8 km/h 31.7 km/h 66% 0.0 mm
00:17 11.9 °C 5.8 °C 1022.9 hPa SW 14.8 km/h 29.4 km/h 66% 0.0 mm
00:22 11.9 °C 5.6 °C 1023.2 hPa SW 11.1 km/h 33.1 km/h 65% 0.0 mm
00:27 11.9 °C 5.3 °C 1023.2 hPa SSW 14.8 km/h 33.1 km/h 64% 0.0 mm
00:32 11.8 °C 5.2 °C 1023.2 hPa SSW 13.4 km/h 28.0 km/h 64% 0.0 mm
00:37 11.8 °C 5.2 °C 1023.2 hPa SW 13.4 km/h 25.6 km/h 64% 0.0 mm
00:42 11.7 °C 4.9 °C 1023.2 hPa SW 6.1 km/h 21.9 km/h 63% 0.0 mm
00:47 11.5 °C 4.7 °C 1023.2 hPa SW 9.7 km/h 21.9 km/h 63% 0.0 mm
00:52 11.5 °C 4.7 °C 1023.2 hPa SW 8.7 km/h 20.9 km/h 63% 0.0 mm
00:57 11.3 °C 4.7 °C 1023.2 hPa WSW 9.7 km/h 20.9 km/h 64% 0.0 mm
01:03 11.2 °C 4.9 °C 1022.9 hPa WSW 7.2 km/h 19.5 km/h 65% 0.0 mm
01:08 11.0 °C 4.7 °C 1022.9 hPa West 11.1 km/h 19.5 km/h 65% 0.0 mm
01:13 11.0 °C 4.2 °C 1022.6 hPa West 11.1 km/h 29.4 km/h 63% 0.0 mm
01:18 11.0 °C 4.0 °C 1022.6 hPa West 7.2 km/h 29.4 km/h 62% 0.0 mm
01:23 10.9 °C 4.1 °C 1022.6 hPa West 14.8 km/h 28.0 km/h 63% 0.0 mm
01:28 11.0 °C 3.8 °C 1022.2 hPa WNW 9.7 km/h 30.6 km/h 61% 0.0 mm
01:33 10.9 °C 3.9 °C 1022.2 hPa WSW 17.2 km/h 30.6 km/h 62% 0.0 mm
01:38 11.0 °C 3.8 °C 1022.2 hPa WSW 14.8 km/h 24.5 km/h 61% 0.0 mm
01:43 10.9 °C 3.9 °C 1022.2 hPa WSW 21.9 km/h 29.4 km/h 62% 0.0 mm
01:48 10.9 °C 3.9 °C 1022.2 hPa WSW 14.8 km/h 31.7 km/h 62% 0.0 mm
01:53 10.9 °C 4.1 °C 1022.2 hPa West 12.2 km/h 31.7 km/h 63% 0.0 mm
01:59 10.8 °C 4.1 °C 1022.2 hPa West 11.1 km/h 29.4 km/h 63% 0.0 mm
02:04 10.8 °C 4.1 °C 1021.9 hPa WSW 11.1 km/h 23.3 km/h 63% 0.0 mm
02:09 10.7 °C 4.2 °C 1021.9 hPa WSW 8.7 km/h 29.4 km/h 64% 0.0 mm
02:14 10.6 °C 4.1 °C 1021.9 hPa WSW 11.1 km/h 29.4 km/h 64% 0.0 mm
02:19 10.6 °C 4.3 °C 1021.9 hPa WSW 12.2 km/h 23.3 km/h 65% 0.0 mm
02:24 10.6 °C 4.3 °C 1021.9 hPa WSW 11.1 km/h 23.3 km/h 65% 0.0 mm
02:29 10.6 °C 4.3 °C 1021.9 hPa SW 7.2 km/h 19.5 km/h 65% 0.0 mm
02:34 10.6 °C 4.3 °C 1021.9 hPa SW 9.7 km/h 18.3 km/h 65% 0.0 mm
02:39 10.6 °C 4.5 °C 1021.9 hPa SW 7.2 km/h 24.5 km/h 66% 0.0 mm
02:44 10.5 °C 4.4 °C 1021.9 hPa SW 9.7 km/h 24.5 km/h 66% 0.0 mm
02:49 10.5 °C 4.2 °C 1022.2 hPa SW 6.1 km/h 18.3 km/h 65% 0.0 mm
02:54 10.4 °C 4.1 °C 1021.9 hPa SW 7.2 km/h 18.3 km/h 65% 0.0 mm
03:00 10.1 °C 3.6 °C 1022.2 hPa SSW 1.1 km/h 15.8 km/h 64% 0.0 mm
03:05 9.8 °C 3.6 °C 1022.2 hPa SSW 3.5 km/h 11.1 km/h 65% 0.0 mm
03:10 9.5 °C 3.4 °C 1022.2 hPa South 3.5 km/h 9.7 km/h 66% 0.0 mm
03:15 9.2 °C 3.4 °C 1021.9 hPa SSW 1.1 km/h 9.7 km/h 67% 0.0 mm
03:20 8.9 °C 3.3 °C 1022.2 hPa Calm   5.0 km/h 68% 0.0 mm
03:25 8.6 °C 3.1 °C 1022.2 hPa South 2.6 km/h 3.5 km/h 68% 0.0 mm
03:30 8.3 °C 3.2 °C 1022.2 hPa South 1.1 km/h 7.2 km/h 70% 0.0 mm
03:35 8.0 °C 3.1 °C 1022.2 hPa South 1.1 km/h 7.2 km/h 71% 0.0 mm
03:40 8.0 °C 3.3 °C 1022.2 hPa Calm   5.0 km/h 72% 0.0 mm
03:45 7.9 °C 3.2 °C 1022.2 hPa Calm   5.0 km/h 72% 0.0 mm
03:50 7.9 °C 3.4 °C 1022.2 hPa West 2.6 km/h 5.0 km/h 73% 0.0 mm
03:55 7.5 °C 3.0 °C 1022.2 hPa Calm   5.0 km/h 73% 0.0 mm
04:00 7.5 °C 3.0 °C 1022.2 hPa WSW 2.6 km/h 7.2 km/h 73% 0.0 mm
04:05 7.9 °C 3.7 °C 1022.2 hPa West 6.1 km/h 8.7 km/h 75% 0.0 mm
04:10 8.7 °C 4.7 °C 1022.2 hPa WSW 5.0 km/h 9.7 km/h 76% 0.0 mm
04:15 9.2 °C 5.0 °C 1022.2 hPa WSW 3.5 km/h 11.1 km/h 75% 0.0 mm
04:20 9.4 °C 5.0 °C 1021.9 hPa WNW 5.0 km/h 12.2 km/h 74% 0.0 mm
04:25 9.5 °C 4.9 °C 1021.9 hPa West 6.1 km/h 12.2 km/h 73% 0.0 mm
04:30 9.6 °C 5.0 °C 1021.9 hPa West 5.0 km/h 14.8 km/h 73% 0.0 mm
04:35 9.6 °C 4.8 °C 1021.9 hPa WSW 6.1 km/h 14.8 km/h 72% 0.0 mm
04:40 9.6 °C 4.8 °C 1021.9 hPa West 5.0 km/h 11.1 km/h 72% 0.0 mm
04:45 9.5 °C 4.7 °C 1021.9 hPa West 5.0 km/h 11.1 km/h 72% 0.0 mm
04:50 9.4 °C 4.6 °C 1022.2 hPa West 2.6 km/h 8.7 km/h 72% 0.0 mm
04:55 9.1 °C 4.1 °C 1021.9 hPa Calm   8.7 km/h 71% 0.0 mm
05:00 8.7 °C 3.9 °C 1021.9 hPa SW 2.6 km/h 5.0 km/h 72% 0.0 mm
05:05 8.3 °C 3.6 °C 1022.2 hPa SW 1.1 km/h 6.1 km/h 72% 0.0 mm
05:10 7.9 °C 3.2 °C 1022.2 hPa SW 2.6 km/h 6.1 km/h 72% 0.0 mm
05:15 7.9 °C 3.4 °C 1021.9 hPa Calm   8.7 km/h 73% 0.0 mm
05:20 7.9 °C 3.6 °C 1021.9 hPa Calm   8.7 km/h 74% 0.0 mm
05:25 7.5 °C 3.2 °C 1021.9 hPa NNW 1.1 km/h 2.6 km/h 74% 0.0 mm
05:30 7.5 °C 3.3 °C 1021.9 hPa NE 2.6 km/h 5.0 km/h 75% 0.0 mm
05:35 7.5 °C 3.6 °C 1021.9 hPa Calm   5.0 km/h 76% 0.0 mm
05:40 7.5 °C 3.7 °C 1021.6 hPa North 3.5 km/h 6.1 km/h 77% 0.0 mm
05:45 7.9 °C 4.1 °C 1021.9 hPa NW 3.5 km/h 8.7 km/h 77% 0.0 mm
05:50 7.9 °C 4.1 °C 1021.9 hPa West 2.6 km/h 8.7 km/h 77% 0.0 mm
05:55 8.6 °C 5.0 °C 1021.6 hPa West 6.1 km/h 14.8 km/h 78% 0.0 mm
06:00 9.1 °C 5.3 °C 1021.9 hPa West 5.0 km/h 14.8 km/h 77% 0.0 mm
06:05 9.1 °C 5.1 °C 1021.9 hPa SW 1.1 km/h 14.8 km/h 76% 0.0 mm
06:10 8.9 °C 4.7 °C 1021.9 hPa SSW 5.0 km/h 11.1 km/h 75% 0.0 mm
06:15 8.5 °C 4.1 °C 1021.9 hPa SSW 1.1 km/h 11.1 km/h 74% 0.0 mm
06:20 8.1 °C 3.9 °C 1022.2 hPa South 2.6 km/h 11.1 km/h 75% 0.0 mm
06:25 7.9 °C 3.7 °C 1022.2 hPa SSW 1.1 km/h 7.2 km/h 75% 0.0 mm
06:30 7.9 °C 3.9 °C 1022.2 hPa SSW 2.6 km/h 7.2 km/h 76% 0.0 mm
06:45 7.5 °C 3.9 °C 1022.2 hPa South 2.6 km/h 9.7 km/h 78% 0.0 mm
06:51 7.5 °C 4.1 °C 1022.2 hPa SSW 2.6 km/h 9.7 km/h 79% 0.0 mm
06:56 7.5 °C 4.3 °C 1022.6 hPa SSW 3.5 km/h 8.7 km/h 80% 0.0 mm
07:01 7.5 °C 4.3 °C 1022.6 hPa SSW 5.0 km/h 8.7 km/h 80% 0.0 mm
07:06 7.9 °C 4.7 °C 1022.9 hPa South 2.6 km/h 8.7 km/h 80% 0.0 mm
07:11 7.9 °C 4.8 °C 1022.9 hPa South 5.0 km/h 7.2 km/h 81% 0.0 mm
07:16 7.9 °C 4.8 °C 1022.9 hPa WSW 1.1 km/h 7.2 km/h 81% 0.0 mm
07:21 8.1 °C 5.2 °C 1022.9 hPa WSW 1.1 km/h 7.2 km/h 82% 0.0 mm
07:26 8.4 °C 5.5 °C 1022.9 hPa South 3.5 km/h 5.0 km/h 82% 0.0 mm
07:31 8.8 °C 5.9 °C 1022.9 hPa Calm   5.0 km/h 82% 0.0 mm
07:36 9.1 °C 6.0 °C 1022.6 hPa NE 1.1 km/h 5.0 km/h 81% 0.0 mm
07:41 9.3 °C 6.1 °C 1022.9 hPa NNW 1.1 km/h 5.0 km/h 80% 0.0 mm
07:46 9.6 °C 6.3 °C 1022.9 hPa NNW 1.1 km/h 5.0 km/h 80% 0.0 mm
07:51 10.0 °C 6.6 °C 1022.9 hPa East 1.1 km/h 6.1 km/h 79% 0.0 mm
07:56 10.4 °C 6.7 °C 1023.2 hPa SW 1.1 km/h 6.1 km/h 78% 0.0 mm
08:01 10.8 °C 6.7 °C 1023.2 hPa SW 1.1 km/h 6.1 km/h 76% 0.0 mm
08:06 11.3 °C 6.7 °C 1023.2 hPa Calm   6.1 km/h 73% 0.0 mm
08:11 12.5 °C 7.2 °C 1023.2 hPa NW 3.5 km/h 7.2 km/h 70% 0.0 mm
08:16 12.8 °C 7.3 °C 1022.9 hPa WNW 5.0 km/h 7.2 km/h 69% 0.0 mm
08:21 13.0 °C 6.8 °C 1022.9 hPa West 2.6 km/h 9.7 km/h 66% 0.0 mm
08:26 13.4 °C 6.7 °C 1022.9 hPa SW 9.7 km/h 15.8 km/h 64% 0.0 mm
08:31 13.9 °C 6.5 °C 1022.9 hPa SW 14.8 km/h 24.5 km/h 61% 0.0 mm
08:36 14.1 °C 5.7 °C 1022.9 hPa SW 13.4 km/h 29.4 km/h 57% 0.0 mm
08:41 14.4 °C 6.0 °C 1022.9 hPa West 15.8 km/h 29.4 km/h 57% 0.0 mm
08:46 14.9 °C 5.9 °C 1022.9 hPa West 12.2 km/h 24.5 km/h 55% 0.0 mm
08:51 15.2 °C 5.9 °C 1022.9 hPa SW 11.1 km/h 25.6 km/h 54% 0.0 mm
08:56 15.2 °C 5.7 °C 1022.9 hPa WSW 11.1 km/h 28.0 km/h 53% 0.0 mm
09:01 15.2 °C 5.7 °C 1023.2 hPa WSW 12.2 km/h 33.1 km/h 53% 0.0 mm
09:06 15.2 °C 5.7 °C 1023.2 hPa WSW 8.7 km/h 33.1 km/h 53% 0.0 mm
09:11 15.2 °C 5.7 °C 1023.2 hPa SW 19.5 km/h 41.7 km/h 53% 0.0 mm
09:16 15.0 °C 5.5 °C 1023.2 hPa SW 18.3 km/h 41.7 km/h 53% 0.0 mm
09:21 14.9 °C 5.9 °C 1023.2 hPa WSW 14.8 km/h 41.7 km/h 55% 0.0 mm
09:27 15.2 °C 5.4 °C 1023.2 hPa WSW 19.5 km/h 33.1 km/h 52% 0.0 mm
09:32 15.7 °C 5.9 °C 1023.2 hPa SW 12.2 km/h 33.1 km/h 52% 0.0 mm
09:37 15.7 °C 5.9 °C 1023.2 hPa SW 7.2 km/h 33.1 km/h 52% 0.0 mm
09:43 15.2 °C 5.1 °C 1023.2 hPa SW 13.4 km/h 25.6 km/h 51% 0.0 mm
09:48 15.2 °C 5.1 °C 1023.2 hPa SW 15.8 km/h 27.0 km/h 51% 0.0 mm
09:53 16.0 °C 5.6 °C 1023.2 hPa West 19.5 km/h 27.0 km/h 50% 0.0 mm
09:58 16.6 °C 5.8 °C 1023.2 hPa WNW 13.4 km/h 27.0 km/h 49% 0.0 mm
10:03 17.0 °C 5.9 °C 1023.2 hPa West 14.8 km/h 27.0 km/h 48% 0.0 mm
10:08 17.1 °C 5.1 °C 1022.9 hPa WSW 13.4 km/h 25.6 km/h 45% 0.0 mm
10:13 17.3 °C 4.3 °C 1022.9 hPa West 13.4 km/h 29.4 km/h 42% 0.0 mm
10:18 17.6 °C 4.9 °C 1023.2 hPa West 14.8 km/h 29.4 km/h 43% 0.0 mm
10:23 17.3 °C 4.3 °C 1023.2 hPa SW 15.8 km/h 31.7 km/h 42% 0.0 mm
10:28 17.4 °C 4.4 °C 1022.9 hPa SW 13.4 km/h 31.7 km/h 42% 0.0 mm
10:33 17.6 °C 4.9 °C 1022.9 hPa WSW 12.2 km/h 27.0 km/h 43% 0.0 mm
10:38 17.6 °C 5.2 °C 1022.9 hPa WSW 8.7 km/h 27.0 km/h 44% 0.0 mm
10:43 17.9 °C 5.2 °C 1022.9 hPa SW 27.0 km/h 37.8 km/h 43% 0.0 mm
10:48 17.8 °C 5.7 °C 1022.9 hPa SW 9.7 km/h 37.8 km/h 45% 0.0 mm
10:53 17.7 °C 4.9 °C 1022.9 hPa SW 17.2 km/h 37.8 km/h 43% 0.0 mm
Waitara, Taranaki. New Zealand Historic Data
Compliments of Weather Underground - 2.25 mb